首页
METAR-TAF:

METAR-TAF

机场 :

欧登塞, 丹麦

纬度: 55-29N, 经度: 010-20E, 海拔: 17米

当前天气观测

该预报发布于37分钟前的08:50 UTC
风速13节,风向西,在西转西北之间变化
温度 7°C
湿度 93%
气压 1015 hPa
能见度10公里或以上
少量云层高于1600英尺
散云层高于1900英尺

METAR: EKOD 010850Z 26013KT 180V300 9999 FEW016 SCT019 07/06 Q1015

时间: 11:27 (09:27 UTC)

预报

该预报发布于32分钟前的08:55 UTC
预报有效从01日的 09点(UTC)到 01日的 17点(UTC)
风速12节,风向西转西南
能见度10公里或以上
多云层高于3000英尺
短暂存在
从 01日的 09点(UTC)到 01日的 11点(UTC)
多云层高于1200英尺
散云层高于2000英尺, 塔状积云.
短暂存在
从 01日的 11点(UTC)到 01日的 15点(UTC)
风速15节,风向西,有时为25节阵风
散云层高于2000英尺, 塔状积云.

TAF: EKOD 010855Z 0109/0117 25012KT 9999 BKN030 TEMPO 0109/0111 BKN012 SCT020TCU TEMPO 0111/0115 27015G25KT SCT020TCU

超过4000个机场的气象观测和天气预报(METAR&TAF报告)。

可查询的气象台以黄色和红色小点在地图上表示。

将鼠标移到小点上方,可查看气象台名称。

然后点击查看天气观测和预报。

如需切换地图:点击带黑十字的绿色按钮放大地图;点击带横线的绿色按钮缩小地图;或者点击绿色箭头查看邻近地区的地图。


METAR-TAF: